This is the latest recevied weather packets stored in our database for station/object F4CYQ-10. If no packets are shown the sender has not sent any weather packets the latest 10 day(s).
| Time | Temp. | Humidity | Pressure | Rain* | Wind** | Luminosity | Snow |
|---|---|---|---|---|---|---|---|
| 1777580143 | 21.67° C | 54% | 1020.6 hPa | - | - | - | - |
| 1777579242 | 21.67° C | 53% | 1020.6 hPa | - | - | - | - |
| 1777578341 | 22.22° C | 53% | 1020.4 hPa | - | - | - | - |
| 1777578188 | 22.22° C | 54% | 1020.2 hPa | - | - | - | - |
| 1777577287 | 22.22° C | 54% | 1020.2 hPa | - | - | - | - |
| 1777576387 | 21.11° C | 55% | 1020.1 hPa | - | - | - | - |
| 1777575486 | 22.22° C | 54% | 1020 hPa | - | - | - | - |
| 1777575118 | 21.11° C | 54% | 1019.9 hPa | - | - | - | - |
| 1777574217 | 20.56° C | 54% | 1019.7 hPa | - | - | - | - |
| 1777573316 | 20.56° C | 55% | 1019.6 hPa | - | - | - | - |
| 1777572415 | -5° C | 100% | 4.8 hPa | - | - | - | - |
| 1777572223 | 21.11° C | 54% | 1019.5 hPa | - | - | - | - |
| 1777572079 | 22.22° C | 52% | 1019.4 hPa | - | - | - | - |
| 1777571323 | 21.11° C | 54% | 1019.4 hPa | - | - | - | - |
| 1777570421 | 21.11° C | 53% | 1019.4 hPa | - | - | - | - |
| 1777569521 | 22.22° C | 52% | 1019.4 hPa | - | - | - | - |
| 1777566459 | 22.22° C | 49% | 1018.8 hPa | - | - | - | - |
| 1777565558 | 22.78° C | 47% | 1018.7 hPa | - | - | - | - |
| 1777564656 | 22.22° C | 49% | 1018.4 hPa | - | - | - | - |
| 1777563755 | -5° C | 100% | 4.8 hPa | - | - | - | - |
| 1777563522 | 22.78° C | 49% | 1018.5 hPa | - | - | - | - |
| 1777562621 | 22.78° C | 48% | 1018.2 hPa | - | - | - | - |
| 1777561720 | 23.33° C | 48% | 1018.2 hPa | - | - | - | - |
| 1777560819 | 23.89° C | 48% | 1018.2 hPa | - | - | - | - |
| 1777560670 | 23.33° C | 48% | 1018.2 hPa | - | - | - | - |
* Rain since midnight (hover to see other rain measurements)
** Current wind speed in m/s (hover to see current wind gust speed)